Time;durP1;ratioP1;P1;durP2;ratioP2;P2;SDS_P1;SDS_P2;PMS_P1;PMS_P2;Temp;Humidity;BMP_temperature;BMP_pressure;BME280_temperature;BME280_humidity;BME280_pressure;Samples;Min_cycle;Max_cycle;Signal;HPM_P1;HPM_P2
2022/07/05 00:02:23;;;;;;;5.97;3.65;;;;;;;16.21;62.07;102027.28;5067781;28;20025;-75
2022/07/05 00:04:50;;;;;;;4.95;3.53;;;;;;;16.17;63.46;102038.78;5059799;28;20054;-75
2022/07/05 00:07:18;;;;;;;6.03;3.90;;;;;;;16.12;63.29;102022.28;5066602;28;20035;-74
2022/07/05 00:09:49;;;;;;;4.38;3.53;;;;;;;16.11;62.67;102023.19;5065385;28;20054;-75
2022/07/05 00:12:14;;;;;;;6.87;3.90;;;;;;;16.08;63.24;102029.41;5067195;28;20039;-75
2022/07/05 00:14:43;;;;;;;5.47;3.55;;;;;;;16.00;63.02;102020.03;5065064;28;20302;-75
2022/07/05 00:17:09;;;;;;;6.22;3.45;;;;;;;15.97;62.74;102034.09;5069697;28;20468;-75
2022/07/05 00:19:34;;;;;;;5.28;3.70;;;;;;;15.94;62.95;102026.34;5062875;28;20139;-75
2022/07/05 00:22:00;;;;;;;6.47;4.10;;;;;;;15.85;64.25;102022.22;5066076;28;20103;-75
2022/07/05 00:24:26;;;;;;;6.15;3.70;;;;;;;15.79;63.86;102019.72;5068531;28;20377;-75
2022/07/05 00:26:51;;;;;;;7.13;3.60;;;;;;;15.72;64.08;102026.91;5064178;28;20031;-75
2022/07/05 00:29:17;;;;;;;5.25;3.97;;;;;;;15.68;64.47;102024.44;5067159;28;20074;-75
2022/07/05 00:31:42;;;;;;;5.00;3.85;;;;;;;15.64;64.63;102021.00;5066061;28;20077;-75
2022/07/05 00:34:07;;;;;;;5.78;3.63;;;;;;;15.63;64.33;102017.53;5076818;28;20483;-75
2022/07/05 00:36:33;;;;;;;5.70;3.65;;;;;;;15.63;63.42;102022.78;5071523;28;20028;-75
2022/07/05 00:38:58;;;;;;;5.28;3.78;;;;;;;15.59;63.63;102017.69;5080544;28;20138;-75
2022/07/05 00:41:24;;;;;;;6.38;4.00;;;;;;;15.50;64.14;102016.16;5065272;28;20032;-75
2022/07/05 00:44:00;;;;;;;6.55;3.80;;;;;;;15.44;63.94;102018.94;5064476;28;20020;-75
2022/07/05 00:46:26;;;;;;;6.10;4.18;;;;;;;15.38;64.10;102011.25;5064868;28;20038;-75
2022/07/05 00:48:52;;;;;;;6.22;3.67;;;;;;;15.30;65.17;102009.69;5071135;28;20069;-74
2022/07/05 00:51:18;;;;;;;6.65;3.92;;;;;;;15.23;65.38;102013.38;5070767;28;20021;-75
2022/07/05 00:53:44;;;;;;;4.35;3.78;;;;;;;15.15;65.73;102017.97;5072665;28;20046;-75
2022/07/05 00:56:11;;;;;;;5.95;4.07;;;;;;;15.09;66.23;102015.50;5066339;28;20114;-75
2022/07/05 00:58:36;;;;;;;5.20;4.05;;;;;;;15.06;65.91;102021.69;5070450;28;20032;-75
2022/07/05 01:01:03;;;;;;;5.85;4.30;;;;;;;15.02;66.72;102023.53;5070792;28;20036;-75
2022/07/05 01:03:29;;;;;;;6.43;4.25;;;;;;;15.00;66.63;102022.72;5069770;28;20032;-75
2022/07/05 01:05:55;;;;;;;6.93;4.55;;;;;;;15.00;65.96;102027.97;5070109;28;20031;-75
2022/07/05 01:08:22;;;;;;;5.97;4.47;;;;;;;14.97;65.87;102022.78;5068165;28;20035;-75
2022/07/05 01:10:47;;;;;;;6.43;4.25;;;;;;;14.90;66.12;102023.81;5070057;28;20033;-75
2022/07/05 01:13:13;;;;;;;7.13;4.97;;;;;;;14.82;66.31;102028.41;5078993;28;20487;-75
2022/07/05 01:15:40;;;;;;;6.65;4.38;;;;;;;14.75;66.98;102025.09;5069030;28;20515;-75
2022/07/05 01:18:06;;;;;;;7.85;4.80;;;;;;;14.68;67.35;102029.63;5066590;28;20036;-75
2022/07/05 01:20:32;;;;;;;6.18;4.50;;;;;;;14.65;67.01;102027.03;5066440;28;20040;-75
2022/07/05 01:23:04;;;;;;;8.13;4.60;;;;;;;14.59;66.86;102027.16;5068231;28;20091;-74
2022/07/05 01:25:31;;;;;;;6.13;4.50;;;;;;;14.53;67.00;102022.94;5066926;28;20111;-75
2022/07/05 01:27:58;;;;;;;6.03;4.18;;;;;;;14.49;67.54;102029.13;5068286;28;20036;-75
2022/07/05 01:30:24;;;;;;;6.78;4.78;;;;;;;14.46;67.62;102026.59;5070267;28;20029;-75
2022/07/05 01:32:50;;;;;;;8.00;4.75;;;;;;;14.38;67.66;102034.63;5065694;28;20032;-75
2022/07/05 01:35:20;;;;;;;6.18;4.88;;;;;;;14.36;67.53;102031.16;5076804;28;20020;-76
2022/07/05 01:37:46;;;;;;;7.55;4.60;;;;;;;14.34;67.67;102022.50;5068758;28;20051;-75
2022/07/05 01:40:12;;;;;;;6.72;4.60;;;;;;;14.30;67.70;102030.44;5061600;28;20158;-75
2022/07/05 01:42:38;;;;;;;5.95;4.53;;;;;;;14.25;68.36;102027.94;5067733;28;20025;-75
2022/07/05 01:45:04;;;;;;;5.03;4.32;;;;;;;14.23;68.38;102021.88;5067504;28;20066;-75
2022/07/05 01:47:29;;;;;;;5.50;4.93;;;;;;;14.22;68.34;102025.38;5067018;28;20051;-75
2022/07/05 01:49:58;;;;;;;8.10;5.03;;;;;;;14.18;68.50;102031.56;5065046;28;20025;-74
2022/07/05 01:52:27;;;;;;;8.25;4.75;;;;;;;14.16;68.62;102028.16;5068597;28;20020;-75
2022/07/05 01:54:52;;;;;;;7.00;4.80;;;;;;;14.15;68.50;102021.19;5069131;28;20458;-75
2022/07/05 01:57:18;;;;;;;6.45;4.80;;;;;;;14.12;68.72;102019.47;5068520;28;20464;-75
2022/07/05 01:59:43;;;;;;;8.02;4.85;;;;;;;14.10;69.29;102023.88;5068168;28;20059;-74
2022/07/05 02:02:08;;;;;;;8.30;4.95;;;;;;;14.06;68.71;102017.03;5068035;28;20070;-74
2022/07/05 02:04:35;;;;;;;8.88;5.03;;;;;;;14.03;69.01;102019.69;5062069;28;20070;-74
2022/07/05 02:07:05;;;;;;;8.23;5.50;;;;;;;13.99;68.91;102018.03;5067576;28;20017;-75
2022/07/05 02:09:30;;;;;;;7.13;4.45;;;;;;;13.98;69.08;102008.47;5069745;28;20128;-74
2022/07/05 02:11:55;;;;;;;7.40;5.28;;;;;;;13.97;69.15;102012.84;5067996;28;20519;-75
2022/07/05 02:14:21;;;;;;;7.55;4.75;;;;;;;13.93;69.21;102016.41;5068517;28;20020;-75
2022/07/05 02:16:46;;;;;;;6.13;4.75;;;;;;;13.92;69.49;102009.44;5067487;28;20024;-75
2022/07/05 02:19:12;;;;;;;5.97;4.47;;;;;;;13.90;69.37;102006.00;5069441;28;20048;-75
2022/07/05 02:21:37;;;;;;;6.03;4.47;;;;;;;13.87;69.86;102000.84;5069648;28;20040;-75
2022/07/05 02:24:03;;;;;;;8.02;4.97;;;;;;;13.81;69.58;102010.56;5070389;28;20521;-74
2022/07/05 02:26:28;;;;;;;8.32;5.00;;;;;;;13.83;69.49;102004.44;5072439;28;20032;-75
2022/07/05 02:28:54;;;;;;;10.02;4.78;;;;;;;13.81;68.76;102005.31;5071035;28;20691;-75
2022/07/05 02:31:20;;;;;;;6.78;4.63;;;;;;;13.77;69.28;102008.88;5071626;28;20040;-75
2022/07/05 02:33:45;;;;;;;7.93;4.65;;;;;;;13.73;70.04;102009.84;5069315;28;20036;-75
2022/07/05 02:36:13;;;;;;;7.25;5.13;;;;;;;13.73;69.33;102009.84;5071656;28;20033;-74
2022/07/05 02:38:39;;;;;;;7.20;5.03;;;;;;;13.69;69.49;102018.63;5079157;28;20222;-75
2022/07/05 02:41:06;;;;;;;7.18;5.07;;;;;;;13.64;69.07;102020.50;5073609;28;20529;-75
2022/07/05 02:43:33;;;;;;;9.10;4.72;;;;;;;13.62;69.22;102017.03;5070226;28;20024;-75
2022/07/05 02:45:58;;;;;;;6.50;4.57;;;;;;;13.59;69.21;102017.09;5071954;28;20486;-74
2022/07/05 02:48:23;;;;;;;7.72;5.35;;;;;;;13.58;69.67;102026.66;5073372;28;20024;-75
2022/07/05 02:50:49;;;;;;;8.52;5.07;;;;;;;13.55;69.26;102026.75;5073624;28;20033;-75
2022/07/05 02:53:14;;;;;;;6.95;4.95;;;;;;;13.49;69.98;102025.09;5080931;28;20459;-75
2022/07/05 02:55:39;;;;;;;7.45;5.13;;;;;;;13.51;68.56;102025.94;5078561;28;20512;-74
2022/07/05 02:58:05;;;;;;;6.75;5.32;;;;;;;13.49;69.23;102026.88;5076960;28;20055;-75
2022/07/05 03:00:31;;;;;;;7.35;4.90;;;;;;;13.45;69.14;102026.06;5072386;28;20030;-74
2022/07/05 03:02:57;;;;;;;5.93;4.88;;;;;;;13.45;69.87;102027.81;5069985;28;20025;-75
2022/07/05 03:05:22;;;;;;;6.68;5.28;;;;;;;13.41;69.42;102032.25;5076561;28;20028;-75
2022/07/05 03:07:47;;;;;;;7.22;5.03;;;;;;;13.39;70.09;102033.97;5073028;28;20352;-75
2022/07/05 03:10:12;;;;;;;6.82;4.85;;;;;;;13.37;70.57;102033.16;5072887;28;20039;-75
2022/07/05 03:12:38;;;;;;;8.32;5.47;;;;;;;13.39;69.55;102036.59;5074121;28;20398;-74
2022/07/05 03:15:04;;;;;;;8.27;5.57;;;;;;;13.34;69.75;102043.66;5072792;28;20028;-75
2022/07/05 03:17:29;;;;;;;7.35;4.57;;;;;;;13.30;69.22;102040.25;5080477;28;20016;-74
2022/07/05 03:19:54;;;;;;;6.68;4.75;;;;;;;13.29;69.04;102045.50;5068620;28;20436;-74
2022/07/05 03:22:19;;;;;;;6.25;4.40;;;;;;;13.27;69.06;102042.06;5069933;28;20032;-74
2022/07/05 03:24:45;;;;;;;7.82;4.50;;;;;;;13.24;69.59;102042.09;5070647;28;20036;-74
2022/07/05 03:27:10;;;;;;;5.55;4.65;;;;;;;13.18;70.22;102043.94;5085226;28;20035;-74
2022/07/05 03:29:35;;;;;;;5.85;4.50;;;;;;;13.14;69.68;102044.88;5077681;28;20085;-75
2022/07/05 03:32:01;;;;;;;6.32;4.53;;;;;;;13.09;70.11;102048.44;5067975;28;20038;-74
2022/07/05 03:34:26;;;;;;;6.55;4.75;;;;;;;13.07;70.54;102053.69;5072302;28;20032;-74
2022/07/05 03:36:51;;;;;;;7.10;4.72;;;;;;;13.02;70.38;102052.91;5072259;28;20035;-75
2022/07/05 03:39:17;;;;;;;7.10;5.15;;;;;;;13.00;70.38;102047.72;5070881;28;20479;-74
2022/07/05 03:41:42;;;;;;;6.38;4.72;;;;;;;12.97;70.66;102054.75;5072238;28;20020;-74
2022/07/05 03:44:07;;;;;;;6.82;4.80;;;;;;;12.95;71.09;102051.31;5070919;28;20032;-74
2022/07/05 03:46:32;;;;;;;5.50;4.65;;;;;;;12.94;71.56;102057.41;5070854;28;20472;-74
2022/07/05 03:48:58;;;;;;;8.38;5.10;;;;;;;12.92;71.75;102051.34;5071835;28;20028;-74
2022/07/05 03:51:23;;;;;;;6.57;5.18;;;;;;;12.96;72.15;102058.25;5070091;28;20028;-74
2022/07/05 03:53:48;;;;;;;6.25;5.22;;;;;;;12.98;71.23;102051.25;5072233;28;20024;-74
2022/07/05 03:56:19;;;;;;;8.00;5.20;;;;;;;13.01;71.09;102052.06;5069314;28;20124;-74
2022/07/05 03:58:44;;;;;;;6.10;5.20;;;;;;;13.06;71.20;102054.59;5080291;28;20226;-75
2022/07/05 04:01:09;;;;;;;9.00;5.40;;;;;;;13.08;71.75;102052.81;5071651;28;20125;-74
2022/07/05 04:03:35;;;;;;;8.30;5.63;;;;;;;13.09;72.26;102064.13;5069650;28;20518;-74
2022/07/05 04:06:00;;;;;;;6.53;5.25;;;;;;;13.08;72.52;102068.50;5070472;28;20086;-74
2022/07/05 04:08:25;;;;;;;7.18;5.25;;;;;;;13.09;72.67;102065.00;5067740;28;20036;-75
2022/07/05 04:10:50;;;;;;;7.53;5.35;;;;;;;13.12;72.68;102067.56;5068396;28;20050;-74
2022/07/05 04:13:16;;;;;;;7.78;5.55;;;;;;;13.14;72.80;102068.41;5074792;28;20024;-75
2022/07/05 04:15:41;;;;;;;10.52;5.65;;;;;;;13.21;72.47;102072.63;5070329;28;20395;-74
2022/07/05 04:18:06;;;;;;;8.57;6.03;;;;;;;13.27;72.29;102073.41;5068707;28;20036;-74
2022/07/05 04:20:31;;;;;;;8.20;5.70;;;;;;;13.28;72.89;102069.91;5069459;28;20508;-74
2022/07/05 04:22:57;;;;;;;8.35;5.80;;;;;;;13.31;72.80;102072.47;5067474;28;20025;-74
2022/07/05 04:25:22;;;;;;;10.32;5.78;;;;;;;13.33;73.03;102078.50;5066209;28;20512;-74
2022/07/05 04:27:53;;;;;;;9.25;5.57;;;;;;;13.36;72.96;102068.88;5067568;28;20025;-74
2022/07/05 04:30:21;;;;;;;11.90;5.53;;;;;;;13.42;72.82;102067.94;5068755;28;20024;-75
2022/07/05 04:32:46;;;;;;;11.95;5.97;;;;;;;13.43;73.46;102069.66;5071899;28;20032;-74
2022/07/05 04:35:12;;;;;;;12.50;6.50;;;;;;;13.48;73.60;102073.06;5077055;28;20031;-74
2022/07/05 04:37:38;;;;;;;12.32;5.95;;;;;;;13.55;74.01;102076.44;5066075;28;20017;-75
2022/07/05 04:40:05;;;;;;;11.70;6.18;;;;;;;13.60;73.21;102074.56;5071995;28;20361;-75
2022/07/05 04:42:31;;;;;;;11.40;6.50;;;;;;;13.65;73.12;102079.75;5064463;28;20031;-74
2022/07/05 04:44:56;;;;;;;8.35;6.35;;;;;;;13.70;73.23;102080.50;5064535;28;20104;-75
2022/07/05 04:47:21;;;;;;;12.38;6.78;;;;;;;13.74;73.29;102078.72;5061886;28;20032;-75
2022/07/05 04:49:46;;;;;;;10.43;6.75;;;;;;;13.78;73.85;102076.00;5061379;28;20420;-75
2022/07/05 04:52:12;;;;;;;16.60;7.57;;;;;;;13.85;73.73;102079.34;5067363;28;20024;-74
2022/07/05 04:54:37;;;;;;;21.13;7.75;;;;;;;13.90;73.99;102071.41;5069237;28;20114;-74
2022/07/05 04:57:03;;;;;;;17.63;7.63;;;;;;;13.95;74.03;102077.41;5064546;28;20028;-74
2022/07/05 04:59:28;;;;;;;16.73;7.93;;;;;;;14.02;73.74;102079.00;5066875;28;20452;-74
2022/07/05 05:01:53;;;;;;;14.13;8.07;;;;;;;14.07;73.78;102073.69;5064820;28;20028;-74
2022/07/05 05:04:18;;;;;;;16.23;7.85;;;;;;;14.10;74.28;102071.88;5068086;28;20095;-74
2022/07/05 05:06:44;;;;;;;11.25;7.75;;;;;;;14.15;74.11;102070.91;5070135;28;20028;-74
2022/07/05 05:09:09;;;;;;;19.98;8.40;;;;;;;14.23;74.13;102068.97;5075059;28;20456;-75
2022/07/05 05:11:34;;;;;;;17.02;7.78;;;;;;;14.29;74.05;102071.47;5070380;28;20480;-74
2022/07/05 05:14:00;;;;;;;13.98;7.85;;;;;;;14.35;73.48;102073.09;5071730;28;20108;-75
2022/07/05 05:16:25;;;;;;;9.93;7.60;;;;;;;14.39;73.48;102075.59;5064765;28;20444;-75
2022/07/05 05:18:50;;;;;;;12.73;8.32;;;;;;;14.47;73.60;102079.81;5069437;28;20027;-74
2022/07/05 05:21:15;;;;;;;15.15;7.85;;;;;;;14.51;73.92;102082.34;5066703;28;20038;-75
2022/07/05 05:23:41;;;;;;;11.15;7.97;;;;;;;14.55;73.86;102083.13;5068587;28;20016;-74
2022/07/05 05:26:06;;;;;;;10.48;7.82;;;;;;;14.62;73.32;102087.34;5069307;28;20028;-75
2022/07/05 05:28:31;;;;;;;15.77;8.88;;;;;;;14.70;73.53;102085.41;5076629;28;20394;-75
2022/07/05 05:30:57;;;;;;;11.50;8.35;;;;;;;14.76;72.97;102080.94;5070980;28;20742;-74
2022/07/05 05:33:22;;;;;;;11.25;8.10;;;;;;;14.82;72.92;102086.91;5067055;28;20028;-75
2022/07/05 05:35:47;;;;;;;13.23;8.32;;;;;;;14.89;72.59;102087.59;5074944;28;20386;-75
2022/07/05 05:38:13;;;;;;;12.18;8.57;;;;;;;14.97;73.72;102095.28;5078700;28;20024;-75
2022/07/05 05:40:40;;;;;;;15.50;8.73;;;;;;;15.03;72.68;102096.00;5083202;28;20395;-75
2022/07/05 05:43:06;;;;;;;12.38;8.45;;;;;;;15.12;72.91;102096.69;5080025;28;20024;-75
2022/07/05 05:45:31;;;;;;;13.20;8.68;;;;;;;15.17;73.20;102093.03;5078952;28;20039;-75
2022/07/05 05:47:58;;;;;;;13.90;9.02;;;;;;;15.22;72.93;102095.53;5072310;28;20025;-75
2022/07/05 05:50:29;;;;;;;18.80;8.95;;;;;;;15.27;72.67;102098.91;5066810;28;20021;-75
2022/07/05 05:52:55;;;;;;;13.32;9.13;;;;;;;15.36;72.85;102102.22;5068327;28;20032;-75
2022/07/05 05:55:22;;;;;;;10.65;8.32;;;;;;;15.41;71.57;102106.44;5069465;28;20021;-75
2022/07/05 05:57:48;;;;;;;11.45;8.35;;;;;;;15.48;71.93;102107.13;5073631;28;20028;-75
2022/07/05 06:00:14;;;;;;;11.05;7.63;;;;;;;15.54;71.27;102117.44;5065502;28;20054;-75
2022/07/05 06:02:40;;;;;;;11.93;8.05;;;;;;;15.60;71.73;102116.44;5071275;28;20032;-75
2022/07/05 06:05:06;;;;;;;12.50;8.13;;;;;;;15.69;71.86;102115.34;5064282;28;20021;-75
2022/07/05 06:07:43;;;;;;;12.15;7.85;;;;;;;15.75;71.34;102115.16;5071017;28;20025;-75
2022/07/05 06:10:08;;;;;;;10.80;7.53;;;;;;;15.80;70.53;102123.78;5066650;28;20020;-75
2022/07/05 06:12:33;;;;;;;12.75;7.68;;;;;;;15.85;69.60;102124.56;5068562;28;20111;-75
2022/07/05 06:14:59;;;;;;;13.07;8.18;;;;;;;15.91;70.09;102119.13;5066198;28;20048;-75
2022/07/05 06:17:24;;;;;;;13.75;8.15;;;;;;;15.97;69.85;102123.31;5067602;28;20016;-75
2022/07/05 06:19:49;;;;;;;12.25;7.85;;;;;;;16.03;69.58;102128.41;5070406;28;20040;-75
2022/07/05 06:22:14;;;;;;;9.88;7.40;;;;;;;16.08;68.78;102123.03;5068754;28;20438;-75
2022/07/05 06:24:40;;;;;;;11.15;7.32;;;;;;;16.12;68.79;102119.41;5066186;28;20024;-75
2022/07/05 06:27:05;;;;;;;9.65;7.22;;;;;;;16.20;68.86;102124.44;5069674;28;20039;-76
2022/07/05 06:29:30;;;;;;;8.40;7.38;;;;;;;16.28;69.25;102130.34;5069079;28;20028;-75
2022/07/05 06:31:55;;;;;;;9.48;7.38;;;;;;;16.34;69.07;102127.53;5079164;28;20428;-75
2022/07/05 06:34:21;;;;;;;9.05;6.97;;;;;;;16.39;69.06;102128.25;5080255;28;20024;-75
2022/07/05 06:36:46;;;;;;;11.35;6.97;;;;;;;16.45;68.35;102129.84;5067731;28;20082;-75
2022/07/05 06:39:11;;;;;;;8.27;6.93;;;;;;;16.49;68.61;102125.34;5067488;28;20044;-75
2022/07/05 06:41:36;;;;;;;9.73;6.47;;;;;;;16.52;68.36;102131.41;5069119;28;20029;-75
2022/07/05 06:44:02;;;;;;;7.78;6.72;;;;;;;16.60;67.21;102132.91;5069924;28;20081;-75
2022/07/05 06:46:27;;;;;;;8.35;6.60;;;;;;;16.65;67.26;102136.25;5064285;28;20025;-75
2022/07/05 06:48:52;;;;;;;23.10;6.97;;;;;;;16.72;67.70;102135.19;5070271;28;20055;-76
2022/07/05 06:51:18;;;;;;;9.27;6.15;;;;;;;16.79;66.45;102136.69;5065213;28;20059;-75
2022/07/05 06:53:43;;;;;;;7.53;6.10;;;;;;;16.88;65.91;102140.81;5069482;28;20025;-75
2022/07/05 06:56:08;;;;;;;9.77;6.05;;;;;;;16.94;65.07;102145.00;5064789;28;20029;-75
2022/07/05 06:58:33;;;;;;;9.55;6.28;;;;;;;16.99;65.48;102143.13;5070069;28;20017;-75
2022/07/05 07:00:59;;;;;;;10.65;6.03;;;;;;;17.02;65.17;102139.53;5067947;28;20029;-75
2022/07/05 07:03:24;;;;;;;7.82;5.28;;;;;;;17.04;65.01;102143.84;5064136;28;20021;-75
2022/07/05 07:05:50;;;;;;;6.75;5.40;;;;;;;17.06;64.58;102144.66;5071368;28;20128;-75
2022/07/05 07:10:59;;;;;;;9.60;5.25;;;;;;;17.06;64.88;102136.78;5071888;28;20093;-75
2022/07/05 07:13:24;;;;;;;7.78;5.60;;;;;;;17.08;65.69;102141.97;5070465;28;20024;-75
2022/07/05 07:15:50;;;;;;;7.38;5.25;;;;;;;17.12;65.39;102125.19;5070369;28;20111;-75
2022/07/05 07:18:15;;;;;;;6.50;5.03;;;;;;;17.21;64.61;102142.44;5070496;28;20033;-75
2022/07/05 07:20:41;;;;;;;7.60;5.10;;;;;;;17.28;64.46;102136.03;5073053;28;20503;-75
2022/07/05 07:23:06;;;;;;;6.82;5.00;;;;;;;17.36;64.42;102136.66;5066240;28;20040;-75
2022/07/05 07:25:31;;;;;;;7.15;5.05;;;;;;;17.45;63.75;102141.59;5070047;28;20031;-75
2022/07/05 07:27:57;;;;;;;6.47;4.80;;;;;;;17.58;64.65;102141.19;5071033;28;20082;-75
2022/07/05 07:30:25;;;;;;;7.03;4.90;;;;;;;17.66;64.29;102144.41;5070444;28;20116;-76
2022/07/05 07:32:51;;;;;;;6.35;4.97;;;;;;;17.74;62.37;102147.66;5072041;28;20395;-76
2022/07/05 07:35:17;;;;;;;6.30;4.57;;;;;;;17.80;63.06;102146.56;5071254;28;20469;-76
2022/07/05 07:37:42;;;;;;;7.63;4.95;;;;;;;17.88;62.82;102154.19;5070502;28;20056;-75
2022/07/05 07:40:08;;;;;;;6.97;4.78;;;;;;;17.95;63.11;102150.41;5070893;28;20388;-76
2022/07/05 07:42:34;;;;;;;7.40;4.82;;;;;;;17.99;63.89;102144.16;5068692;28;20127;-75
2022/07/05 07:45:03;;;;;;;8.02;4.90;;;;;;;18.08;63.82;102155.28;5073012;28;20479;-75
2022/07/05 07:47:31;;;;;;;8.32;4.80;;;;;;;18.14;64.58;102157.69;5072609;28;20365;-75
2022/07/05 07:49:57;;;;;;;5.25;4.50;;;;;;;18.22;63.46;102153.00;5070769;28;20032;-75
2022/07/05 07:52:22;;;;;;;7.97;4.88;;;;;;;18.27;62.11;102150.19;5070811;28;20020;-75
2022/07/05 07:54:47;;;;;;;7.38;4.60;;;;;;;18.32;62.68;102151.72;5069528;28;20074;-75
2022/07/05 07:57:13;;;;;;;6.75;4.30;;;;;;;18.37;63.28;102154.19;5069454;28;20032;-75
2022/07/05 07:59:38;;;;;;;6.07;3.90;;;;;;;18.41;61.89;102152.31;5072274;28;20032;-75
2022/07/05 08:02:04;;;;;;;6.57;3.33;;;;;;;18.43;61.76;102153.97;5071281;28;20032;-75
2022/07/05 08:04:29;;;;;;;4.38;3.28;;;;;;;18.44;61.41;102153.03;5067534;28;21909;-76
2022/07/05 08:06:54;;;;;;;6.15;3.70;;;;;;;18.46;62.39;102150.34;5072310;28;20027;-75
2022/07/05 08:09:20;;;;;;;5.20;3.47;;;;;;;18.50;61.86;102157.22;5071619;28;20032;-76
2022/07/05 08:11:46;;;;;;;5.20;3.72;;;;;;;18.54;62.29;102150.91;5068889;28;20589;-75
2022/07/05 08:14:12;;;;;;;5.93;3.85;;;;;;;18.59;62.00;102154.25;5065093;28;20021;-75
2022/07/05 08:16:37;;;;;;;5.20;3.33;;;;;;;18.64;62.29;102154.91;5071208;28;20036;-75
2022/07/05 08:21:47;;;;;;;5.18;3.15;;;;;;;18.72;62.05;102154.59;5069967;28;21332;-75
2022/07/05 08:24:13;;;;;;;4.57;2.70;;;;;;;18.74;61.51;102159.84;5070598;28;20024;-75
2022/07/05 08:26:39;;;;;;;9.88;2.95;;;;;;;18.78;60.61;102157.00;5069443;28;20510;-75
2022/07/05 08:29:07;;;;;;;5.07;3.00;;;;;;;18.81;61.46;102159.53;5077700;28;20066;-75
2022/07/05 08:31:36;;;;;;;5.82;3.33;;;;;;;18.87;60.21;102162.84;5067221;28;20066;-75
2022/07/05 08:34:02;;;;;;;6.90;3.00;;;;;;;18.94;60.27;102165.22;5069293;28;20115;-75
2022/07/05 08:36:28;;;;;;;8.35;3.78;;;;;;;19.04;60.16;102167.47;5071519;28;20039;-75
2022/07/05 08:38:53;;;;;;;6.65;3.72;;;;;;;19.13;60.74;102160.97;5071593;28;20100;-76
2022/07/05 08:41:20;;;;;;;7.28;4.18;;;;;;;19.20;59.74;102154.53;5066865;28;20052;-75
2022/07/05 08:43:47;;;;;;;8.10;4.50;;;;;;;19.25;59.31;102160.44;5069784;28;20036;-75
2022/07/05 08:46:15;;;;;;;7.07;4.30;;;;;;;19.28;61.18;102155.03;5068643;28;20025;-75
2022/07/05 08:48:43;;;;;;;5.82;4.05;;;;;;;19.29;60.24;102161.19;5073349;28;20181;-75
2022/07/05 08:51:13;;;;;;;6.30;4.20;;;;;;;19.28;60.66;102160.31;5066609;28;20048;-76
2022/07/05 08:53:40;;;;;;;9.18;4.20;;;;;;;19.28;59.64;102159.47;5069074;28;20086;-75
2022/07/05 08:56:08;;;;;;;7.53;4.25;;;;;;;19.29;59.48;102151.50;5069885;28;20031;-75
2022/07/05 08:58:34;;;;;;;9.35;4.50;;;;;;;19.40;59.97;102156.31;5071717;28;20025;-75
2022/07/05 09:01:00;;;;;;;8.07;4.65;;;;;;;19.46;58.45;102152.56;5065773;28;20017;-75
2022/07/05 09:03:38;;;;;;;9.73;4.50;;;;;;;19.52;58.85;102153.16;5066221;28;20020;-75
2022/07/05 09:06:07;;;;;;;8.02;3.95;;;;;;;19.56;61.23;102153.88;5065559;28;20116;-76
2022/07/05 09:08:39;;;;;;;6.50;3.90;;;;;;;19.59;60.86;102152.91;5080223;28;20056;-75
2022/07/05 09:11:07;;;;;;;8.00;4.00;;;;;;;19.62;60.70;102152.78;5070776;28;20020;-76
2022/07/05 09:13:37;;;;;;;7.00;3.83;;;;;;;19.60;59.11;102166.03;5069844;28;20379;-75
2022/07/05 09:16:03;;;;;;;6.80;3.80;;;;;;;19.54;58.02;102153.94;5069295;28;20498;-75
2022/07/05 09:18:53;;;;;;;7.35;4.13;;;;;;;19.47;59.95;102156.91;5070686;28;20554;-75
2022/07/05 09:21:22;;;;;;;6.15;3.92;;;;;;;19.48;60.33;102162.13;5068633;28;20170;-75
2022/07/05 09:23:58;;;;;;;7.47;3.70;;;;;;;19.51;58.07;102159.34;5069264;28;20498;-75
2022/07/05 09:26:52;;;;;;;5.40;3.85;;;;;;;19.58;58.59;102169.66;5068026;28;20021;-75
2022/07/05 09:29:19;;;;;;;6.63;3.97;;;;;;;19.62;57.34;102158.06;5067933;28;20105;-75
2022/07/05 09:31:48;;;;;;;6.75;3.60;;;;;;;19.69;56.76;102164.78;5078773;28;20533;-75
2022/07/05 09:34:18;;;;;;;6.35;3.70;;;;;;;19.71;58.14;102158.53;5077241;28;20037;-75
2022/07/05 09:36:56;;;;;;;8.45;4.43;;;;;;;19.73;59.97;102158.44;5080757;28;20023;-76
2022/07/05 09:39:30;;;;;;;9.18;4.65;;;;;;;19.83;58.69;102161.53;5075193;28;20267;-75
2022/07/05 09:42:28;;;;;;;5.05;3.58;;;;;;;19.92;58.01;102160.31;5071569;28;20032;-76
2022/07/05 09:44:55;;;;;;;7.22;4.57;;;;;;;19.97;58.10;102160.97;5055843;28;20044;-75
2022/07/05 09:47:23;;;;;;;6.05;3.63;;;;;;;20.05;57.18;102156.19;5066524;28;20031;-75
2022/07/05 09:49:51;;;;;;;5.60;2.80;;;;;;;20.11;53.72;102150.63;5083873;28;20032;-75
2022/07/05 09:52:27;;;;;;;5.30;2.40;;;;;;;;;;5071795;28;20066;-75
2022/07/05 09:55:06;;;;;;;4.10;2.58;;;;;;;20.19;55.48;102150.28;5079904;28;20024;-75
2022/07/05 09:57:33;;;;;;;3.88;2.65;;;;;;;20.25;52.74;102151.78;5065120;28;20353;-75
2022/07/05 10:00:06;;;;;;;6.30;3.15;;;;;;;20.33;52.33;102154.91;5083381;28;20028;-75
2022/07/05 10:02:42;;;;;;;4.53;2.53;;;;;;;20.42;53.33;102151.88;5068434;28;20073;-76
2022/07/05 10:05:18;;;;;;;6.65;2.60;;;;;;;20.46;51.52;102156.09;5057392;28;20024;-76
2022/07/05 10:07:47;;;;;;;3.30;2.03;;;;;;;20.46;50.95;102156.09;5059874;28;20032;-75
2022/07/05 10:10:14;;;;;;;7.15;1.80;;;;;;;20.46;47.32;102150.78;5060226;28;20036;-76
2022/07/05 10:12:41;;;;;;;2.58;1.63;;;;;;;20.54;50.35;102154.84;5056244;28;20033;-76
2022/07/05 10:15:09;;;;;;;3.53;1.98;;;;;;;20.58;47.77;102151.13;5062887;28;20153;-75
2022/07/05 10:17:39;;;;;;;6.82;1.95;;;;;;;20.59;47.34;102160.78;5060454;28;20031;-75
2022/07/05 10:20:12;;;;;;;7.43;2.17;;;;;;;20.58;47.94;102161.72;5057259;28;20049;-76
2022/07/05 10:22:38;;;;;;;4.18;1.95;;;;;;;20.50;46.07;102155.91;5062105;28;20028;-76
2022/07/05 10:25:04;;;;;;;7.60;2.00;;;;;;;20.39;47.48;102157.28;5064176;28;20079;-75
2022/07/05 10:27:32;;;;;;;4.22;2.20;;;;;;;20.32;46.93;102156.72;5063636;28;20067;-76
2022/07/05 10:29:58;;;;;;;3.85;2.08;;;;;;;20.28;47.84;102152.50;5063209;28;20034;-76
2022/07/05 10:32:25;;;;;;;4.60;2.00;;;;;;;20.27;47.79;102156.06;5060770;28;20364;-76
2022/07/05 10:34:51;;;;;;;3.47;1.90;;;;;;;20.34;51.11;102151.34;5062143;28;20039;-75
2022/07/05 10:37:17;;;;;;;6.03;2.05;;;;;;;20.43;48.69;102155.34;5064417;28;20033;-76
2022/07/05 10:39:42;;;;;;;4.22;2.20;;;;;;;20.52;48.74;102164.63;5061546;28;20032;-76
2022/07/05 10:42:09;;;;;;;3.58;2.00;;;;;;;20.56;48.42;102163.56;5063037;28;20043;-76
2022/07/05 10:44:34;;;;;;;4.88;2.50;;;;;;;20.53;46.99;102166.34;5064058;28;20036;-76
2022/07/05 10:47:09;;;;;;;5.55;3.00;;;;;;;20.46;49.92;102155.22;5065480;28;20036;-76
2022/07/05 10:49:35;;;;;;;6.55;2.85;;;;;;;20.45;50.07;102159.66;5067267;28;20120;-76
2022/07/05 10:52:01;;;;;;;4.82;3.40;;;;;;;20.37;50.32;102156.50;5065309;28;20123;-76
2022/07/05 10:54:26;;;;;;;5.75;3.80;;;;;;;20.30;48.55;102163.00;5064068;28;20420;-76
2022/07/05 10:57:21;;;;;;;9.15;3.33;;;;;;;20.31;50.32;102157.66;5060887;28;20082;-76
2022/07/05 11:00:22;;;;;;;4.53;3.47;;;;;;;20.41;51.01;102158.06;5064679;28;20032;-76
2022/07/05 11:03:05;;;;;;;5.20;2.67;;;;;;;20.50;49.70;102155.91;5064008;28;20044;-76
2022/07/05 11:05:31;;;;;;;4.18;2.38;;;;;;;20.55;45.78;102148.63;5063994;28;20122;-76
2022/07/05 11:07:59;;;;;;;6.15;2.40;;;;;;;20.56;44.87;102153.00;5065311;28;20040;-76
2022/07/05 11:10:25;;;;;;;4.85;2.90;;;;;;;20.57;46.59;102157.34;5063349;28;20047;-76
2022/07/05 11:12:50;;;;;;;4.68;2.33;;;;;;;20.58;45.96;102159.06;5059667;28;20036;-76
2022/07/05 11:15:16;;;;;;;5.90;2.42;;;;;;;20.60;47.29;102151.94;5058215;28;20058;-76
2022/07/05 11:17:42;;;;;;;6.90;2.33;;;;;;;20.68;47.50;102155.03;5061417;28;20574;-76
2022/07/05 11:20:09;;;;;;;6.07;2.20;;;;;;;20.81;48.78;102147.44;5062465;28;20048;-76
2022/07/05 11:22:36;;;;;;;4.43;2.10;;;;;;;20.92;46.21;102153.03;5062528;28;20028;-76
2022/07/05 11:25:03;;;;;;;5.22;2.30;;;;;;;20.90;46.55;102156.69;5061938;28;20127;-77
2022/07/05 11:27:29;;;;;;;5.18;2.05;;;;;;;20.83;46.83;102150.00;5056631;28;20024;-76
2022/07/05 11:29:55;;;;;;;6.40;2.53;;;;;;;20.74;47.09;102153.94;5054410;28;20082;-76